Time;durP1;ratioP1;P1;durP2;ratioP2;P2;SDS_P1;SDS_P2;PMS_P1;PMS_P2;Temp;Humidity;BMP_temperature;BMP_pressure;BME280_temperature;BME280_humidity;BME280_pressure;Samples;Min_cycle;Max_cycle;Signal;HPM_P1;HPM_P2
2021/12/26 00:02:06;;;;;;;23.45;17.58;;;;;;;;;;5033966;28;20393;-65
2021/12/26 00:04:52;;;;;;;25.70;17.27;;;;;;;;;;5035575;28;20514;-65
2021/12/26 00:07:37;;;;;;;26.63;18.10;;;;;;;;;;5033982;28;20040;-64
2021/12/26 00:10:23;;;;;;;25.05;17.48;;;;;;;;;;5042317;28;20035;-66
2021/12/26 00:13:09;;;;;;;27.25;18.17;;;;;;;;;;5034045;28;20068;-68
2021/12/26 00:15:54;;;;;;;19.65;15.05;;;;;;;;;;5034952;28;20016;-64
2021/12/26 00:18:45;;;;;;;21.23;15.90;;;;;;;;;;5034319;28;20032;-64
2021/12/26 00:21:30;;;;;;;24.48;16.58;;;;;;;;;;5041421;28;20079;-65
2021/12/26 00:24:15;;;;;;;28.17;18.63;;;;;;;;;;5047952;28;20072;-65
2021/12/26 00:27:01;;;;;;;21.92;15.98;;;;;;;;;;5040865;28;20037;-63
2021/12/26 00:29:46;;;;;;;24.73;16.42;;;;;;;;;;5030612;28;20124;-62
2021/12/26 00:32:31;;;;;;;22.60;15.85;;;;;;;;;;5034953;28;20033;-68
2021/12/26 00:35:18;;;;;;;24.80;17.80;;;;;;;;;;5032987;28;20032;-65
2021/12/26 00:38:04;;;;;;;21.13;14.82;;;;;;;;;;5034973;28;20087;-65
2021/12/26 00:40:50;;;;;;;23.48;16.20;;;;;;;;;;5040112;28;20046;-62
2021/12/26 00:43:35;;;;;;;24.52;16.00;;;;;;;;;;5033513;28;20112;-63
2021/12/26 00:46:21;;;;;;;20.92;15.27;;;;;;;;;;5034568;28;20476;-63
2021/12/26 00:49:06;;;;;;;20.80;14.70;;;;;;;;;;5029112;28;20028;-63
2021/12/26 00:51:52;;;;;;;24.23;15.88;;;;;;;;;;5046674;28;20040;-65
2021/12/26 00:54:37;;;;;;;25.88;18.20;;;;;;;;;;5021413;28;20029;-63
2021/12/26 00:57:22;;;;;;;25.30;17.02;;;;;;;;;;5034532;28;20112;-64
2021/12/26 01:00:10;;;;;;;25.85;16.83;;;;;;;;;;5033428;28;20029;-63
2021/12/26 01:02:56;;;;;;;24.10;15.93;;;;;;;;;;5048745;28;20037;-65
2021/12/26 01:05:42;;;;;;;23.25;16.15;;;;;;;;;;5046153;28;20033;-66
2021/12/26 01:08:30;;;;;;;26.23;17.00;;;;;;;;;;5034513;28;20117;-70
2021/12/26 01:11:32;;;;;;;20.45;15.23;;;;;;;;;;5038077;28;20029;-68
2021/12/26 01:14:24;;;;;;;23.48;16.10;;;;;;;;;;5033609;28;20444;-67
2021/12/26 01:17:14;;;;;;;26.70;17.45;;;;;;;;;;5043678;28;20037;-65
2021/12/26 01:20:02;;;;;;;;;;;;;;;;;;5033659;28;20111;-66
2021/12/26 01:22:47;;;;;;;22.25;14.57;;;;;;;;;;5033984;28;19962;-63
2021/12/26 01:25:33;;;;;;;26.10;16.52;;;;;;;;;;5037801;28;20043;-64
2021/12/26 01:28:19;;;;;;;21.75;15.32;;;;;;;;;;5036782;28;20029;-64
2021/12/26 01:31:04;;;;;;;23.25;15.02;;;;;;;;;;5029454;28;20292;-60
2021/12/26 01:33:51;;;;;;;20.70;14.90;;;;;;;;;;5023257;28;20029;-60
2021/12/26 01:36:37;;;;;;;22.75;15.05;;;;;;;;;;5015849;28;20406;-61
2021/12/26 01:39:22;;;;;;;21.50;14.60;;;;;;;;;;5033444;28;20102;-61
2021/12/26 01:42:10;;;;;;;23.38;15.30;;;;;;;;;;5025894;28;20033;-61
2021/12/26 01:44:55;;;;;;;22.70;14.43;;;;;;;;;;5047078;28;20040;-69
2021/12/26 01:47:40;;;;;;;17.48;12.38;;;;;;;;;;5028467;28;20037;-69
2021/12/26 01:50:26;;;;;;;17.17;11.98;;;;;;;;;;5033529;28;20035;-66
2021/12/26 01:53:12;;;;;;;21.85;13.45;;;;;;;;;;5032583;28;20041;-65
2021/12/26 01:55:57;;;;;;;21.80;12.88;;;;;;;;;;5033257;28;20540;-65
2021/12/26 01:58:42;;;;;;;16.38;11.98;;;;;;;;;;5035651;28;20055;-63
2021/12/26 02:01:28;;;;;;;16.90;11.63;;;;;;;;;;5032478;28;20036;-66
2021/12/26 02:04:13;;;;;;;16.23;11.32;;;;;;;;;;5033209;28;20116;-63
2021/12/26 02:07:00;;;;;;;19.55;12.27;;;;;;;;;;5032369;28;20033;-63
2021/12/26 02:09:45;;;;;;;15.60;10.35;;;;;;;;;;5034231;28;20112;-61
2021/12/26 02:12:30;;;;;;;14.98;10.75;;;;;;;;;;5031496;28;20530;-60
2021/12/26 02:15:15;;;;;;;16.95;11.77;;;;;;;;;;5033543;28;20025;-60
2021/12/26 02:18:01;;;;;;;16.17;11.10;;;;;;;;;;5029170;28;20122;-61
2021/12/26 02:23:45;;;;;;;17.40;12.20;;;;;;;;;;5031177;28;20448;-69
2021/12/26 02:29:35;;;;;;;15.75;11.38;;;;;;;;;;5038616;28;20037;-61
2021/12/26 02:32:20;;;;;;;16.83;11.73;;;;;;;;;;5025605;28;20505;-61
2021/12/26 02:35:06;;;;;;;15.38;10.75;;;;;;;;;;5043252;28;20033;-65
2021/12/26 02:37:51;;;;;;;16.92;11.32;;;;;;;;;;5022226;28;20053;-65
2021/12/26 02:40:37;;;;;;;14.57;10.70;;;;;;;;;;5046395;28;20123;-63
2021/12/26 02:43:23;;;;;;;14.40;9.70;;;;;;;;;;5021455;28;20102;-70
2021/12/26 02:46:09;;;;;;;14.40;10.55;;;;;;;;;;5023848;28;20040;-69
2021/12/26 02:48:54;;;;;;;12.32;9.25;;;;;;;;;;5029605;28;20051;-67
2021/12/26 02:51:39;;;;;;;16.15;10.43;;;;;;;;;;5034736;28;20041;-67
2021/12/26 02:54:25;;;;;;;15.85;11.50;;;;;;;;;;5035869;28;20029;-69
2021/12/26 02:57:10;;;;;;;13.32;10.13;;;;;;;;;;5036366;28;20476;-68
2021/12/26 02:59:59;;;;;;;17.63;11.48;;;;;;;;;;5040637;28;20097;-65
2021/12/26 03:02:45;;;;;;;14.33;10.13;;;;;;;;;;5038179;28;20021;-60
2021/12/26 03:05:33;;;;;;;12.95;9.35;;;;;;;;;;5035228;28;20655;-59
2021/12/26 03:08:18;;;;;;;15.43;10.18;;;;;;;;;;5025524;28;20464;-62
2021/12/26 03:11:03;;;;;;;13.85;9.80;;;;;;;;;;5044190;28;20067;-61
2021/12/26 03:13:49;;;;;;;16.60;10.25;;;;;;;;;;5022845;28;20029;-64
2021/12/26 03:16:34;;;;;;;12.82;9.15;;;;;;;;;;5024253;28;20119;-61
2021/12/26 03:19:19;;;;;;;13.75;9.80;;;;;;;;;;5036188;28;20387;-67
2021/12/26 03:22:04;;;;;;;12.95;9.20;;;;;;;;;;5040744;28;20033;-62
2021/12/26 03:24:50;;;;;;;13.88;9.30;;;;;;;;;;5034899;28;20444;-62
2021/12/26 03:27:35;;;;;;;16.33;10.68;;;;;;;;;;5050250;28;20064;-64
2021/12/26 03:30:22;;;;;;;12.82;8.55;;;;;;;;;;5034232;28;20035;-64
2021/12/26 03:33:09;;;;;;;13.13;9.55;;;;;;;;;;5030346;28;20100;-63
2021/12/26 03:35:54;;;;;;;16.05;11.20;;;;;;;;;;5023665;28;20024;-67
2021/12/26 03:38:39;;;;;;;15.85;10.63;;;;;;;;;;5049886;28;20054;-63
2021/12/26 03:41:25;;;;;;;14.80;10.38;;;;;;;;;;5034548;28;20499;-62
2021/12/26 03:44:10;;;;;;;14.68;10.43;;;;;;;;;;5035748;28;20072;-62
2021/12/26 03:46:55;;;;;;;17.00;11.52;;;;;;;;;;5034007;28;20029;-63
2021/12/26 03:49:40;;;;;;;16.88;11.57;;;;;;;;;;5035920;28;20033;-62
2021/12/26 03:52:26;;;;;;;17.25;12.57;;;;;;;;;;5030126;28;20091;-62
2021/12/26 03:55:11;;;;;;;16.38;11.43;;;;;;;;;;5035894;28;20033;-63
2021/12/26 03:57:57;;;;;;;15.07;10.38;;;;;;;;;;5032905;28;20084;-66
2021/12/26 04:00:43;;;;;;;15.25;11.15;;;;;;;;;;5035627;28;20032;-66
2021/12/26 04:03:28;;;;;;;16.98;11.10;;;;;;;;;;5037280;28;20373;-65
2021/12/26 04:06:13;;;;;;;17.65;12.63;;;;;;;;;;5050915;28;20055;-66
2021/12/26 04:08:59;;;;;;;17.40;12.07;;;;;;;;;;5035315;28;20024;-66
2021/12/26 04:11:45;;;;;;;13.98;10.15;;;;;;;;;;5037375;28;20469;-64
2021/12/26 04:14:30;;;;;;;15.00;10.80;;;;;;;;;;5051131;28;20039;-63
2021/12/26 04:17:16;;;;;;;16.27;11.63;;;;;;;;;;5053125;28;20060;-66
2021/12/26 04:20:02;;;;;;;17.70;12.40;;;;;;;;;;5053321;28;20020;-67
2021/12/26 04:22:48;;;;;;;16.73;12.05;;;;;;;;;;5052606;28;20040;-67
2021/12/26 04:25:33;;;;;;;18.85;12.13;;;;;;;;;;5040346;28;20033;-66
2021/12/26 04:28:19;;;;;;;17.30;11.15;;;;;;;;;;5052617;28;20070;-66
2021/12/26 04:31:05;;;;;;;16.55;11.73;;;;;;;;;;5052825;28;20048;-70
2021/12/26 04:33:50;;;;;;;17.30;11.93;;;;;;;;;;5052210;28;20055;-64
2021/12/26 04:36:36;;;;;;;18.63;12.30;;;;;;;;;;5057206;28;20048;-63
2021/12/26 04:39:21;;;;;;;15.60;11.10;;;;;;;;;;5052496;28;20017;-64
2021/12/26 04:42:07;;;;;;;14.32;10.52;;;;;;;;;;5050071;28;20021;-62
2021/12/26 04:44:53;;;;;;;17.08;12.23;;;;;;;;;;5049351;28;20028;-63
2021/12/26 04:47:39;;;;;;;17.33;12.02;;;;;;;;;;5052617;28;20025;-62
2021/12/26 04:50:24;;;;;;;20.73;13.30;;;;;;;;;;5049285;28;20032;-64
2021/12/26 04:53:10;;;;;;;20.00;13.13;;;;;;;;;;5052416;28;20031;-68
2021/12/26 04:55:55;;;;;;;19.55;13.43;;;;;;;;;;5052061;28;20039;-68
2021/12/26 04:58:41;;;;;;;18.25;12.48;;;;;;;;;;5052023;28;20059;-70
2021/12/26 05:01:26;;;;;;;20.88;14.10;;;;;;;;;;5052194;28;20048;-68
2021/12/26 05:04:11;;;;;;;17.35;12.85;;;;;;;;;;5052125;28;20013;-68
2021/12/26 05:06:56;;;;;;;20.02;12.98;;;;;;;;;;5052513;28;20060;-66
2021/12/26 05:09:45;;;;;;;18.75;12.23;;;;;;;;;;5058285;28;20037;-61
2021/12/26 05:12:30;;;;;;;20.02;13.38;;;;;;;;;;5037783;28;20041;-63
2021/12/26 05:15:16;;;;;;;19.55;13.32;;;;;;;;;;5038169;28;20025;-62
2021/12/26 05:18:02;;;;;;;20.75;14.05;;;;;;;;;;5032083;28;20548;-63
2021/12/26 05:20:47;;;;;;;24.95;15.60;;;;;;;;;;5045549;28;20025;-63
2021/12/26 05:23:32;;;;;;;21.20;14.60;;;;;;;;;;5051059;28;20064;-63
2021/12/26 05:26:18;;;;;;;24.02;16.20;;;;;;;;;;5037836;28;20443;-68
2021/12/26 05:29:03;;;;;;;20.83;14.98;;;;;;;;;;5040037;28;20031;-66
2021/12/26 05:31:48;;;;;;;20.48;14.35;;;;;;;;;;5050921;28;20468;-66
2021/12/26 05:34:33;;;;;;;21.83;15.30;;;;;;;;;;5051914;28;20028;-66
2021/12/26 05:37:18;;;;;;;22.10;14.77;;;;;;;;;;5037057;28;20100;-67
2021/12/26 05:40:05;;;;;;;23.08;15.43;;;;;;;;;;5056157;28;20013;-66
2021/12/26 05:42:50;;;;;;;22.42;15.40;;;;;;;;;;5053117;28;20059;-66
2021/12/26 05:45:36;;;;;;;23.05;15.77;;;;;;;;;;5051337;28;20317;-68
2021/12/26 05:48:21;;;;;;;28.35;17.77;;;;;;;;;;5038429;28;20025;-67
2021/12/26 05:51:06;;;;;;;23.08;15.10;;;;;;;;;;5039545;28;20040;-67
2021/12/26 05:53:52;;;;;;;22.25;15.20;;;;;;;;;;5048948;28;20399;-68
2021/12/26 05:56:37;;;;;;;20.05;13.95;;;;;;;;;;5043069;28;20028;-68
2021/12/26 05:59:22;;;;;;;18.65;13.13;;;;;;;;;;5044735;28;20013;-68
2021/12/26 06:02:08;;;;;;;20.15;14.38;;;;;;;;;;5047708;28;20029;-63
2021/12/26 06:04:53;;;;;;;21.88;14.50;;;;;;;;;;5051745;28;20032;-64
2021/12/26 06:07:39;;;;;;;23.58;15.05;;;;;;;;;;5036642;28;20024;-62
2021/12/26 06:10:24;;;;;;;24.08;15.43;;;;;;;;;;5050274;28;20029;-63
2021/12/26 06:13:10;;;;;;;24.50;15.77;;;;;;;;;;5048638;28;20021;-63
2021/12/26 06:15:55;;;;;;;23.75;16.13;;;;;;;;;;5054942;28;20028;-61
2021/12/26 06:18:40;;;;;;;22.58;14.73;;;;;;;;;;5038515;28;20029;-63
2021/12/26 06:21:26;;;;;;;24.50;15.00;;;;;;;;;;5038404;28;20021;-69
2021/12/26 06:24:11;;;;;;;25.70;15.68;;;;;;;;;;5036363;28;20021;-66
2021/12/26 06:26:56;;;;;;;22.13;14.55;;;;;;;;;;5038212;28;20036;-66
2021/12/26 06:29:41;;;;;;;21.95;13.95;;;;;;;;;;5055340;28;20056;-67
2021/12/26 06:32:27;;;;;;;26.25;15.73;;;;;;;;;;5054797;28;20033;-65
2021/12/26 06:35:12;;;;;;;21.15;13.82;;;;;;;;;;5038268;28;20021;-66
2021/12/26 06:37:58;;;;;;;24.77;16.77;;;;;;;;;;5035037;28;20025;-65
2021/12/26 06:40:43;;;;;;;26.42;17.65;;;;;;;;;;5045958;28;20025;-69
2021/12/26 06:43:28;;;;;;;23.77;15.02;;;;;;;;;;5042283;28;20064;-64
2021/12/26 06:46:15;;;;;;;23.45;16.17;;;;;;;;;;5048374;28;20103;-64
2021/12/26 06:49:00;;;;;;;29.58;18.23;;;;;;;;;;5049824;28;20099;-64
2021/12/26 06:51:46;;;;;;;23.98;16.50;;;;;;;;;;5048210;28;20052;-65
2021/12/26 06:54:31;;;;;;;27.08;18.02;;;;;;;;;;5054536;28;20032;-65
2021/12/26 06:57:17;;;;;;;24.27;16.00;;;;;;;;;;5037584;28;20061;-64
2021/12/26 07:00:04;;;;;;;29.75;17.67;;;;;;;;;;5046119;28;20052;-63
2021/12/26 07:02:49;;;;;;;28.83;16.58;;;;;;;;;;5042985;28;20433;-60
2021/12/26 07:05:34;;;;;;;24.25;16.83;;;;;;;;;;5053826;28;20542;-59
2021/12/26 07:08:20;;;;;;;24.23;16.05;;;;;;;;;;5043012;28;20455;-61
2021/12/26 07:11:05;;;;;;;23.92;16.10;;;;;;;;;;5040554;28;20032;-62
2021/12/26 07:13:50;;;;;;;26.67;18.15;;;;;;;;;;5054172;28;20375;-62
2021/12/26 07:16:35;;;;;;;27.38;17.35;;;;;;;;;;5051968;28;20026;-63
2021/12/26 07:19:21;;;;;;;26.25;16.13;;;;;;;;;;5052391;28;20017;-68
2021/12/26 07:22:07;;;;;;;25.75;16.23;;;;;;;;;;5053881;28;20170;-69
2021/12/26 07:24:53;;;;;;;30.77;18.75;;;;;;;;;;5039825;28;20037;-68
2021/12/26 07:27:38;;;;;;;21.48;15.55;;;;;;;;;;5054027;28;20033;-68
2021/12/26 07:30:23;;;;;;;23.50;15.32;;;;;;;;;;5053327;28;20025;-68
2021/12/26 07:33:08;;;;;;;24.80;16.23;;;;;;;;;;5053929;28;20029;-70
2021/12/26 07:35:54;;;;;;;22.25;15.43;;;;;;;;;;5052272;28;20029;-61
2021/12/26 07:38:39;;;;;;;20.05;13.98;;;;;;;;;;5052605;28;20118;-66
2021/12/26 07:41:24;;;;;;;21.77;14.40;;;;;;;;;;5053643;28;20104;-66
2021/12/26 07:44:09;;;;;;;24.58;15.60;;;;;;;;;;5040549;28;20025;-66
2021/12/26 07:46:55;;;;;;;22.65;15.55;;;;;;;;;;5053629;28;20029;-66
2021/12/26 07:49:40;;;;;;;25.02;14.93;;;;;;;;;;5060079;28;20025;-65
2021/12/26 07:52:30;;;;;;;21.83;14.40;;;;;;;;;;5048670;28;20091;-65
2021/12/26 07:55:16;;;;;;;20.45;13.95;;;;;;;;;;5047474;28;20052;-66
2021/12/26 07:58:01;;;;;;;25.63;15.38;;;;;;;;;;5042414;28;20115;-66
2021/12/26 08:00:46;;;;;;;26.27;15.75;;;;;;;;;;5041121;28;20460;-66
2021/12/26 08:03:35;;;;;;;26.98;15.70;;;;;;;;;;5053657;28;20058;-66
2021/12/26 08:06:20;;;;;;;21.88;15.05;;;;;;;;;;5042627;28;20083;-68
2021/12/26 08:09:06;;;;;;;21.80;14.98;;;;;;;;;;5052834;28;20357;-66
2021/12/26 08:11:51;;;;;;;27.20;17.13;;;;;;;;;;5053062;28;20068;-65
2021/12/26 08:14:37;;;;;;;20.50;14.13;;;;;;;;;;5052332;28;20025;-68
2021/12/26 08:17:23;;;;;;;24.95;15.13;;;;;;;;;;5052730;28;20031;-68
2021/12/26 08:20:09;;;;;;;22.02;14.57;;;;;;;;;;5058485;28;20023;-68
2021/12/26 08:22:55;;;;;;;21.92;14.50;;;;;;;;;;5053991;28;20025;-70
2021/12/26 08:25:40;;;;;;;24.13;14.20;;;;;;;;;;5052356;28;20044;-67
2021/12/26 08:28:26;;;;;;;21.10;13.90;;;;;;;;;;5052666;28;20017;-68
2021/12/26 08:31:11;;;;;;;22.05;15.00;;;;;;;;;;5052892;28;20037;-61
2021/12/26 08:33:57;;;;;;;20.73;13.80;;;;;;;;;;5052996;28;20025;-62
2021/12/26 08:36:42;;;;;;;24.83;14.98;;;;;;;;;;5052657;28;20361;-61
2021/12/26 08:39:28;;;;;;;24.35;15.50;;;;;;;;;;5052464;28;20025;-61
2021/12/26 08:42:14;;;;;;;47.97;28.88;;;;;;;;;;5052232;28;20074;-62
2021/12/26 08:44:59;;;;;;;32.28;18.23;;;;;;;;;;5052816;28;20017;-61
2021/12/26 08:47:46;;;;;;;22.20;13.82;;;;;;;;;;5040823;28;20559;-61
2021/12/26 08:50:31;;;;;;;23.27;15.18;;;;;;;;;;5052215;28;20503;-69
2021/12/26 08:53:16;;;;;;;20.35;13.45;;;;;;;;;;5060204;28;20033;-67
2021/12/26 08:56:03;;;;;;;22.27;14.50;;;;;;;;;;5038776;28;20024;-67
2021/12/26 08:58:49;;;;;;;24.02;14.98;;;;;;;;;;5036981;28;20032;-65
2021/12/26 09:01:35;;;;;;;19.65;13.75;;;;;;;;;;5052387;28;20033;-66
2021/12/26 09:04:20;;;;;;;19.17;12.32;;;;;;;;;;5050838;28;20025;-66
2021/12/26 09:07:06;;;;;;;19.23;13.57;;;;;;;;;;5052230;28;20498;-68
2021/12/26 09:09:51;;;;;;;23.40;13.82;;;;;;;;;;5042318;28;20306;-63
2021/12/26 09:12:37;;;;;;;23.70;15.55;;;;;;;;;;5047865;28;20045;-63
2021/12/26 09:15:22;;;;;;;23.75;14.65;;;;;;;;;;5051856;28;20025;-63
2021/12/26 09:18:07;;;;;;;24.02;14.88;;;;;;;;;;5040278;28;20032;-63
2021/12/26 09:20:52;;;;;;;24.08;14.57;;;;;;;;;;5051614;28;20047;-62
2021/12/26 09:23:38;;;;;;;18.77;13.80;;;;;;;;;;5055156;28;20032;-64
2021/12/26 09:26:23;;;;;;;20.15;13.60;;;;;;;;;;5040405;28;20040;-64
2021/12/26 09:29:08;;;;;;;21.15;14.48;;;;;;;;;;5051979;28;20024;-67
2021/12/26 09:31:54;;;;;;;21.88;13.88;;;;;;;;;;5041338;28;20071;-68
2021/12/26 09:34:39;;;;;;;19.80;14.30;;;;;;;;;;5051726;28;20017;-67
2021/12/26 09:37:24;;;;;;;17.70;13.05;;;;;;;;;;5051573;28;20021;-68
2021/12/26 09:40:10;;;;;;;15.18;11.02;;;;;;;;;;5051336;28;20017;-67
2021/12/26 09:42:56;;;;;;;16.00;11.43;;;;;;;;;;5051807;28;20029;-67
2021/12/26 09:45:41;;;;;;;15.10;11.25;;;;;;;;;;5051259;28;20021;-66
2021/12/26 09:48:26;;;;;;;16.08;11.57;;;;;;;;;;5051673;28;20025;-65
2021/12/26 09:51:13;;;;;;;18.73;12.07;;;;;;;;;;5051482;28;20039;-65
2021/12/26 09:53:58;;;;;;;13.40;10.38;;;;;;;;;;5051538;28;20079;-65
2021/12/26 09:56:43;;;;;;;19.70;13.23;;;;;;;;;;5059561;28;20024;-66
2021/12/26 09:59:30;;;;;;;14.27;10.27;;;;;;;;;;5051812;28;20032;-65
2021/12/26 10:02:18;;;;;;;15.77;10.43;;;;;;;;;;5049946;28;20029;-64
2021/12/26 10:05:03;;;;;;;17.35;11.60;;;;;;;;;;5048243;28;20121;-60
2021/12/26 10:08:04;;;;;;;13.93;10.10;;;;;;;;;;5042810;28;20053;-59
2021/12/26 10:11:05;;;;;;;15.48;11.48;;;;;;;;;;5055256;28;20029;-60
2021/12/26 10:13:52;;;;;;;15.02;11.10;;;;;;;;;;5040249;28;20044;-61
2021/12/26 10:16:42;;;;;;;15.07;11.27;;;;;;;;;;5055284;28;20553;-59
2021/12/26 10:19:31;;;;;;;17.33;11.40;;;;;;;;;;5055037;28;20017;-61
2021/12/26 10:22:21;;;;;;;14.57;10.40;;;;;;;;;;5055194;28;20028;-65
2021/12/26 10:25:10;;;;;;;15.82;11.93;;;;;;;;;;5040931;28;20029;-65
2021/12/26 10:28:08;;;;;;;17.23;11.27;;;;;;;;;;5046598;28;20041;-65
2021/12/26 10:30:53;;;;;;;14.32;10.38;;;;;;;;;;5046104;28;20069;-64
2021/12/26 10:33:48;;;;;;;15.05;11.20;;;;;;;;;;5040505;28;20028;-65
2021/12/26 10:36:41;;;;;;;15.95;11.55;;;;;;;;;;5054802;28;20025;-69
2021/12/26 10:39:47;;;;;;;15.20;10.88;;;;;;;;;;5044494;28;20036;-68
2021/12/26 10:42:33;;;;;;;15.90;11.73;;;;;;;;;;5054493;28;20028;-62
2021/12/26 10:45:20;;;;;;;15.90;11.30;;;;;;;;;;5039772;28;20415;-62
2021/12/26 10:48:06;;;;;;;16.98;11.32;;;;;;;;;;5054833;28;20431;-62
2021/12/26 10:50:52;;;;;;;15.00;10.75;;;;;;;;;;5054204;28;20033;-63
2021/12/26 10:53:37;;;;;;;16.60;11.10;;;;;;;;;;5054501;28;20028;-63
2021/12/26 10:56:22;;;;;;;16.58;10.75;;;;;;;;;;5043808;28;20036;-64
2021/12/26 10:59:20;;;;;;;16.30;10.88;;;;;;;;;;5055354;28;20016;-65
2021/12/26 11:02:05;;;;;;;14.55;10.02;;;;;;;;;;5059169;28;20033;-61
2021/12/26 11:05:03;;;;;;;14.27;9.98;;;;;;;;;;5054526;28;20021;-61
2021/12/26 11:07:54;;;;;;;14.52;10.65;;;;;;;;;;5027044;28;20040;-60
2021/12/26 11:10:41;;;;;;;17.23;12.18;;;;;;;;;;5037514;28;20520;-62
2021/12/26 11:13:26;;;;;;;13.75;10.18;;;;;;;;;;5044680;28;20063;-61
2021/12/26 11:16:12;;;;;;;13.90;11.00;;;;;;;;;;5054252;28;20039;-62
2021/12/26 11:18:58;;;;;;;13.80;10.13;;;;;;;;;;5053868;28;20100;-67
2021/12/26 11:21:43;;;;;;;15.40;10.82;;;;;;;;;;5054082;28;20469;-68
2021/12/26 11:24:29;;;;;;;12.93;10.40;;;;;;;;;;5054014;28;20036;-68
2021/12/26 11:27:14;;;;;;;12.73;9.80;;;;;;;;;;5054114;28;20094;-67
2021/12/26 11:29:59;;;;;;;13.43;10.25;;;;;;;;;;5052034;28;20104;-68
2021/12/26 11:32:45;;;;;;;15.65;11.55;;;;;;;;;;5037389;28;20037;-69
2021/12/26 11:35:31;;;;;;;16.83;11.65;;;;;;;;;;5048278;28;20025;-69
2021/12/26 11:38:19;;;;;;;16.90;12.07;;;;;;;;;;5047786;28;20054;-61
2021/12/26 11:41:06;;;;;;;14.40;10.90;;;;;;;;;;5053883;28;20064;-61
2021/12/26 11:44:23;;;;;;;14.05;10.65;;;;;;;;;;5053615;28;20097;-62
2021/12/26 11:47:11;;;;;;;15.52;10.35;;;;;;;;;;5053296;28;20017;-60
2021/12/26 11:50:09;;;;;;;14.25;10.77;;;;;;;;;;5060485;28;20024;-61
2021/12/26 11:53:12;;;;;;;13.15;10.13;;;;;;;;;;5042399;28;20032;-65
2021/12/26 11:56:17;;;;;;;13.18;9.50;;;;;;;;;;4991667;28;20040;-68
2021/12/26 11:59:13;;;;;;;12.20;9.07;;;;;;;;;;5028928;28;20071;-67
2021/12/26 12:01:59;;;;;;;12.65;9.20;;;;;;;;;;5017681;28;20567;-65
2021/12/26 12:05:04;;;;;;;13.30;9.68;;;;;;;;;;5019627;28;20264;-67
2021/12/26 12:08:09;;;;;;;12.43;9.50;;;;;;;;;;5017182;28;20034;-68
2021/12/26 12:10:55;;;;;;;13.15;10.13;;;;;;;;;;5004541;28;20045;-61
2021/12/26 12:13:49;;;;;;;13.25;9.25;;;;;;;;;;5015501;28;20126;-64
2021/12/26 12:16:35;;;;;;;14.20;10.57;;;;;;;;;;5020434;28;20041;-66
2021/12/26 12:19:20;;;;;;;13.05;9.38;;;;;;;;;;5015609;28;20028;-66
2021/12/26 12:22:05;;;;;;;13.48;10.48;;;;;;;;;;5014638;28;20080;-64
2021/12/26 12:24:51;;;;;;;16.33;11.32;;;;;;;;;;5013044;28;20029;-65
2021/12/26 12:27:56;;;;;;;14.23;10.63;;;;;;;;;;5012051;28;20041;-65
2021/12/26 12:30:52;;;;;;;14.93;10.32;;;;;;;;;;5014090;28;20029;-65
2021/12/26 12:33:38;;;;;;;19.02;12.48;;;;;;;;;;5028488;28;20021;-67
2021/12/26 12:36:26;;;;;;;15.75;11.75;;;;;;;;;;5020056;28;20320;-68
2021/12/26 12:39:13;;;;;;;20.00;12.50;;;;;;;;;;5016911;28;20392;-69
2021/12/26 12:41:58;;;;;;;16.70;13.20;;;;;;;;;;5007479;28;20352;-67
2021/12/26 12:44:56;;;;;;;14.63;11.80;;;;;;;;;;5015024;28;20030;-68
2021/12/26 12:47:41;;;;;;;16.88;12.63;;;;;;;;;;5014512;28;20036;-67
2021/12/26 12:50:33;;;;;;;13.70;10.95;;;;;;;;;;5012171;28;20623;-66
2021/12/26 12:53:51;;;;;;;16.20;12.35;;;;;;;;;;5003591;28;20048;-67
2021/12/26 12:56:40;;;;;;;15.50;11.35;;;;;;;;;;4997901;28;20034;-65
2021/12/26 12:59:26;;;;;;;14.63;10.95;;;;;;;;;;4994535;28;20022;-65
2021/12/26 13:02:21;;;;;;;14.85;11.02;;;;;;;;;;5016205;28;20624;-66
2021/12/26 13:05:06;;;;;;;14.32;10.65;;;;;;;;;;5007870;28;20082;-65
2021/12/26 13:07:58;;;;;;;15.35;10.25;;;;;;;;;;5012290;28;20037;-64
2021/12/26 13:10:47;;;;;;;12.63;9.82;;;;;;;;;;4996696;28;20133;-68
2021/12/26 13:13:38;;;;;;;11.55;9.25;;;;;;;;;;5027189;28;20036;-65
2021/12/26 13:16:30;;;;;;;11.55;9.02;;;;;;;;;;5016036;28;20112;-67
2021/12/26 13:19:15;;;;;;;13.57;10.68;;;;;;;;;;5007270;28;20025;-64
2021/12/26 13:22:01;;;;;;;12.13;9.77;;;;;;;;;;5006541;28;20017;-66
2021/12/26 13:24:46;;;;;;;12.55;8.75;;;;;;;;;;5012404;28;20038;-63
2021/12/26 13:27:32;;;;;;;14.05;9.32;;;;;;;;;;5019781;28;20037;-67
2021/12/26 13:30:20;;;;;;;12.43;9.25;;;;;;;;;;5013044;28;20036;-67
2021/12/26 13:33:18;;;;;;;12.48;9.48;;;;;;;;;;5013676;28;20037;-67
2021/12/26 13:36:08;;;;;;;15.30;9.52;;;;;;;;;;5017065;28;20080;-67
2021/12/26 13:38:55;;;;;;;13.23;9.70;;;;;;;;;;5012790;28;20026;-67
2021/12/26 13:41:42;;;;;;;12.80;9.43;;;;;;;;;;5034442;28;20025;-67
2021/12/26 13:44:27;;;;;;;14.40;10.80;;;;;;;;;;5006003;28;20120;-62
2021/12/26 13:47:13;;;;;;;12.77;9.43;;;;;;;;;;5025084;28;20028;-64
2021/12/26 13:50:25;;;;;;;14.98;9.07;;;;;;;;;;5012531;28;20428;-65
2021/12/26 13:53:10;;;;;;;11.13;8.85;;;;;;;;;;5005509;28;20566;-63
2021/12/26 13:55:58;;;;;;;11.50;8.50;;;;;;;;;;5009531;28;20029;-65
2021/12/26 13:58:43;;;;;;;11.57;9.18;;;;;;;;;;5013400;28;20442;-64
2021/12/26 14:01:29;;;;;;;13.02;9.13;;;;;;;;;;5015066;28;20121;-66
2021/12/26 14:04:14;;;;;;;13.95;9.90;;;;;;;;;;5012215;28;20017;-66
2021/12/26 14:07:05;;;;;;;14.25;9.93;;;;;;;;;;5007756;28;20057;-67
2021/12/26 14:09:52;;;;;;;13.27;9.50;;;;;;;;;;5012210;28;20037;-66
2021/12/26 14:12:43;;;;;;;13.25;9.70;;;;;;;;;;5019895;28;20308;-66
2021/12/26 14:15:33;;;;;;;13.73;10.40;;;;;;;;;;4998725;28;20069;-67
2021/12/26 14:18:20;;;;;;;13.00;9.57;;;;;;;;;;5007788;28;20088;-69
2021/12/26 14:21:09;;;;;;;14.40;10.63;;;;;;;;;;5024673;28;20366;-64
2021/12/26 14:23:54;;;;;;;13.90;11.00;;;;;;;;;;5001776;28;20045;-66
2021/12/26 14:26:40;;;;;;;14.60;10.88;;;;;;;;;;5010540;28;20044;-67
2021/12/26 14:29:25;;;;;;;13.88;10.57;;;;;;;;;;5013850;28;20036;-69
2021/12/26 14:32:10;;;;;;;13.93;10.07;;;;;;;;;;5008160;28;20037;-68
2021/12/26 14:34:55;;;;;;;13.50;10.20;;;;;;;;;;5012491;28;20300;-68
2021/12/26 14:37:41;;;;;;;14.82;10.25;;;;;;;;;;5024038;28;20037;-69
2021/12/26 14:40:29;;;;;;;13.55;10.07;;;;;;;;;;4999713;28;20030;-63
2021/12/26 14:43:14;;;;;;;17.10;11.00;;;;;;;;;;5021988;28;20500;-61
2021/12/26 14:46:02;;;;;;;14.75;10.98;;;;;;;;;;5010767;28;20055;-61
2021/12/26 14:48:47;;;;;;;15.35;11.80;;;;;;;;;;4999360;28;20049;-62
2021/12/26 14:51:32;;;;;;;13.63;9.85;;;;;;;;;;5007579;28;20496;-60
2021/12/26 14:54:18;;;;;;;13.05;9.80;;;;;;;;;;5031068;28;20010;-61
2021/12/26 14:57:03;;;;;;;15.25;11.00;;;;;;;;;;5011017;28;20511;-65
2021/12/26 14:59:51;;;;;;;14.00;9.57;;;;;;;;;;5017351;28;20032;-71
2021/12/26 15:02:50;;;;;;;11.52;8.63;;;;;;;;;;5007203;28;20109;-69
2021/12/26 15:05:35;;;;;;;13.80;10.27;;;;;;;;;;5030788;28;20029;-68
2021/12/26 15:08:21;;;;;;;13.38;9.20;;;;;;;;;;5016061;28;20044;-68
2021/12/26 15:11:10;;;;;;;15.15;10.18;;;;;;;;;;5003037;28;20396;-69
2021/12/26 15:13:55;;;;;;;14.13;11.07;;;;;;;;;;5002055;28;20036;-68
2021/12/26 15:16:43;;;;;;;13.07;9.60;;;;;;;;;;5024039;28;20284;-61
2021/12/26 15:19:38;;;;;;;14.20;10.63;;;;;;;;;;5014797;28;20073;-67
2021/12/26 15:22:34;;;;;;;14.50;10.20;;;;;;;;;;5015926;28;20045;-69
2021/12/26 15:25:25;;;;;;;14.25;10.52;;;;;;;;;;5029798;28;20036;-69
2021/12/26 15:28:14;;;;;;;13.27;9.40;;;;;;;;;;5014918;28;20029;-69
2021/12/26 15:31:01;;;;;;;14.13;9.93;;;;;;;;;;5016234;28;20033;-68
2021/12/26 15:33:49;;;;;;;14.80;10.32;;;;;;;;;;5003995;28;20105;-62
2021/12/26 15:36:43;;;;;;;15.95;11.13;;;;;;;;;;5016115;28;20033;-62
2021/12/26 15:39:28;;;;;;;12.65;9.25;;;;;;;;;;5006104;28;20049;-63
2021/12/26 15:42:13;;;;;;;13.90;10.25;;;;;;;;;;5017016;28;20083;-65
2021/12/26 15:44:58;;;;;;;18.02;10.63;;;;;;;;;;5015032;28;20083;-64
2021/12/26 15:47:44;;;;;;;15.15;10.80;;;;;;;;;;5019529;28;20080;-63
2021/12/26 15:50:29;;;;;;;14.10;10.50;;;;;;;;;;5018867;28;20041;-63
2021/12/26 15:53:14;;;;;;;16.42;11.13;;;;;;;;;;5009619;28;20489;-67
2021/12/26 15:56:00;;;;;;;13.15;9.73;;;;;;;;;;5001956;28;20120;-62
2021/12/26 15:58:45;;;;;;;13.27;9.80;;;;;;;;;;5014680;28;20033;-63
2021/12/26 16:01:31;;;;;;;13.52;9.60;;;;;;;;;;5025636;28;20072;-62
2021/12/26 16:04:16;;;;;;;13.90;8.60;;;;;;;;;;5014939;28;20037;-63
2021/12/26 16:07:01;;;;;;;14.52;10.20;;;;;;;;;;5029693;28;20540;-62
2021/12/26 16:09:46;;;;;;;13.63;9.98;;;;;;;;;;5014742;28;20013;-65
2021/12/26 16:12:32;;;;;;;13.30;9.63;;;;;;;;;;5028942;28;20040;-65
2021/12/26 16:15:17;;;;;;;14.73;10.60;;;;;;;;;;5008503;28;20477;-61
2021/12/26 16:18:02;;;;;;;13.77;9.68;;;;;;;;;;5003367;28;20026;-61
2021/12/26 16:20:48;;;;;;;16.08;10.73;;;;;;;;;;5015819;28;20022;-60